sensor_id;sensor_type;location;lat;lon;timestamp;temperature;humidity
1468;DHT22;727;48.892;9.544;2023-09-07T00:01:55;14.70;99.90
1468;DHT22;727;48.892;9.544;2023-09-07T00:04:22;14.70;99.90
1468;DHT22;727;48.892;9.544;2023-09-07T00:06:48;14.70;99.90
1468;DHT22;727;48.892;9.544;2023-09-07T00:09:15;14.70;99.90
1468;DHT22;727;48.892;9.544;2023-09-07T00:11:43;14.70;99.90
1468;DHT22;727;48.892;9.544;2023-09-07T00:14:10;14.60;99.90
1468;DHT22;727;48.892;9.544;2023-09-07T00:16:37;14.60;99.90
1468;DHT22;727;48.892;9.544;2023-09-07T00:19:05;14.60;99.90
1468;DHT22;727;48.892;9.544;2023-09-07T00:21:32;14.60;99.90
1468;DHT22;727;48.892;9.544;2023-09-07T00:23:59;14.50;99.90
1468;DHT22;727;48.892;9.544;2023-09-07T00:26:30;14.50;99.90
1468;DHT22;727;48.892;9.544;2023-09-07T00:28:57;14.40;99.90
1468;DHT22;727;48.892;9.544;2023-09-07T00:31:24;14.40;99.90
1468;DHT22;727;48.892;9.544;2023-09-07T00:33:51;14.40;99.90
1468;DHT22;727;48.892;9.544;2023-09-07T00:36:19;14.40;99.90
1468;DHT22;727;48.892;9.544;2023-09-07T00:38:46;14.40;99.90
1468;DHT22;727;48.892;9.544;2023-09-07T00:41:13;14.40;99.90
1468;DHT22;727;48.892;9.544;2023-09-07T00:43:40;14.40;99.90
1468;DHT22;727;48.892;9.544;2023-09-07T00:46:07;14.40;99.90
1468;DHT22;727;48.892;9.544;2023-09-07T00:48:34;14.40;99.90
1468;DHT22;727;48.892;9.544;2023-09-07T00:51:01;14.40;99.90
1468;DHT22;727;48.892;9.544;2023-09-07T00:53:30;14.40;99.90
1468;DHT22;727;48.892;9.544;2023-09-07T00:55:58;14.40;99.90
1468;DHT22;727;48.892;9.544;2023-09-07T00:58:25;14.30;99.90
1468;DHT22;727;48.892;9.544;2023-09-07T01:00:52;14.30;99.90
1468;DHT22;727;48.892;9.544;2023-09-07T01:03:19;14.30;99.90
1468;DHT22;727;48.892;9.544;2023-09-07T01:05:52;14.30;99.90
1468;DHT22;727;48.892;9.544;2023-09-07T01:08:24;14.30;99.90
1468;DHT22;727;48.892;9.544;2023-09-07T01:10:53;14.20;99.90
1468;DHT22;727;48.892;9.544;2023-09-07T01:13:20;14.20;99.90
1468;DHT22;727;48.892;9.544;2023-09-07T01:15:47;14.10;99.90
1468;DHT22;727;48.892;9.544;2023-09-07T01:18:15;14.10;99.90
1468;DHT22;727;48.892;9.544;2023-09-07T01:20:44;14.10;99.90
1468;DHT22;727;48.892;9.544;2023-09-07T01:23:13;14.00;99.90
1468;DHT22;727;48.892;9.544;2023-09-07T01:25:40;14.00;99.90
1468;DHT22;727;48.892;9.544;2023-09-07T01:28:09;14.00;99.90
1468;DHT22;727;48.892;9.544;2023-09-07T01:30:36;14.00;99.90
1468;DHT22;727;48.892;9.544;2023-09-07T01:33:04;14.00;99.90
1468;DHT22;727;48.892;9.544;2023-09-07T01:35:32;13.90;99.90
1468;DHT22;727;48.892;9.544;2023-09-07T01:38:00;13.90;99.90
1468;DHT22;727;48.892;9.544;2023-09-07T01:40:28;13.80;99.90
1468;DHT22;727;48.892;9.544;2023-09-07T01:42:55;13.80;99.90
1468;DHT22;727;48.892;9.544;2023-09-07T01:45:22;13.80;99.90
1468;DHT22;727;48.892;9.544;2023-09-07T01:47:49;13.80;99.90
1468;DHT22;727;48.892;9.544;2023-09-07T01:50:16;13.70;99.90
1468;DHT22;727;48.892;9.544;2023-09-07T01:52:45;13.70;99.90
1468;DHT22;727;48.892;9.544;2023-09-07T01:55:12;13.70;99.90
1468;DHT22;727;48.892;9.544;2023-09-07T01:57:41;13.70;99.90
1468;DHT22;727;48.892;9.544;2023-09-07T02:00:08;13.60;99.90
1468;DHT22;727;48.892;9.544;2023-09-07T02:02:35;13.60;99.90
1468;DHT22;727;48.892;9.544;2023-09-07T02:05:02;13.60;99.90
1468;DHT22;727;48.892;9.544;2023-09-07T02:07:29;13.60;99.90
1468;DHT22;727;48.892;9.544;2023-09-07T02:09:56;13.60;99.90
1468;DHT22;727;48.892;9.544;2023-09-07T02:12:23;13.60;99.90
1468;DHT22;727;48.892;9.544;2023-09-07T02:14:51;13.50;99.90
1468;DHT22;727;48.892;9.544;2023-09-07T02:17:18;13.50;99.90
1468;DHT22;727;48.892;9.544;2023-09-07T02:19:46;13.40;99.90
1468;DHT22;727;48.892;9.544;2023-09-07T02:22:13;13.50;99.90
1468;DHT22;727;48.892;9.544;2023-09-07T02:24:39;13.40;99.90
1468;DHT22;727;48.892;9.544;2023-09-07T02:27:06;13.40;99.90
1468;DHT22;727;48.892;9.544;2023-09-07T02:29:33;13.40;99.90
1468;DHT22;727;48.892;9.544;2023-09-07T02:32:01;13.40;99.90
1468;DHT22;727;48.892;9.544;2023-09-07T02:34:28;13.40;99.90
1468;DHT22;727;48.892;9.544;2023-09-07T02:36:54;13.40;99.90
1468;DHT22;727;48.892;9.544;2023-09-07T02:39:22;13.40;99.90
1468;DHT22;727;48.892;9.544;2023-09-07T02:41:51;13.40;99.90
1468;DHT22;727;48.892;9.544;2023-09-07T02:44:18;13.40;99.90
1468;DHT22;727;48.892;9.544;2023-09-07T02:46:45;13.30;99.90
1468;DHT22;727;48.892;9.544;2023-09-07T02:49:14;13.30;99.90
1468;DHT22;727;48.892;9.544;2023-09-07T02:51:41;13.30;99.90
1468;DHT22;727;48.892;9.544;2023-09-07T02:54:07;13.30;99.90
1468;DHT22;727;48.892;9.544;2023-09-07T02:56:34;13.30;99.90
1468;DHT22;727;48.892;9.544;2023-09-07T02:59:01;13.30;99.90
1468;DHT22;727;48.892;9.544;2023-09-07T03:01:28;13.30;99.90
1468;DHT22;727;48.892;9.544;2023-09-07T03:03:55;13.20;99.90
1468;DHT22;727;48.892;9.544;2023-09-07T03:06:24;13.20;99.90
1468;DHT22;727;48.892;9.544;2023-09-07T03:08:50;13.20;99.90
1468;DHT22;727;48.892;9.544;2023-09-07T03:11:18;13.20;99.90
1468;DHT22;727;48.892;9.544;2023-09-07T03:13:45;13.10;99.90
1468;DHT22;727;48.892;9.544;2023-09-07T03:16:11;13.10;99.90
1468;DHT22;727;48.892;9.544;2023-09-07T03:18:38;13.10;99.90
1468;DHT22;727;48.892;9.544;2023-09-07T03:21:06;13.10;99.90
1468;DHT22;727;48.892;9.544;2023-09-07T03:23:34;13.00;99.90
1468;DHT22;727;48.892;9.544;2023-09-07T03:26:02;13.00;99.90
1468;DHT22;727;48.892;9.544;2023-09-07T03:28:28;13.00;99.90
1468;DHT22;727;48.892;9.544;2023-09-07T03:30:55;13.00;99.90
1468;DHT22;727;48.892;9.544;2023-09-07T03:33:22;13.00;99.90
1468;DHT22;727;48.892;9.544;2023-09-07T03:35:49;13.00;99.90
1468;DHT22;727;48.892;9.544;2023-09-07T03:38:17;13.00;99.90
1468;DHT22;727;48.892;9.544;2023-09-07T03:40:45;13.00;99.90
1468;DHT22;727;48.892;9.544;2023-09-07T03:43:12;13.00;99.90
1468;DHT22;727;48.892;9.544;2023-09-07T03:45:39;13.00;99.90
1468;DHT22;727;48.892;9.544;2023-09-07T03:48:06;13.00;99.90
1468;DHT22;727;48.892;9.544;2023-09-07T03:50:34;12.90;99.90
1468;DHT22;727;48.892;9.544;2023-09-07T03:53:01;12.90;99.90
1468;DHT22;727;48.892;9.544;2023-09-07T03:55:28;12.90;99.90
1468;DHT22;727;48.892;9.544;2023-09-07T03:57:56;12.90;99.90
1468;DHT22;727;48.892;9.544;2023-09-07T04:00:23;12.90;99.90
1468;DHT22;727;48.892;9.544;2023-09-07T04:02:49;12.90;99.90
1468;DHT22;727;48.892;9.544;2023-09-07T04:05:16;12.90;99.90
1468;DHT22;727;48.892;9.544;2023-09-07T04:07:44;12.90;99.90
1468;DHT22;727;48.892;9.544;2023-09-07T04:10:11;12.90;99.90
1468;DHT22;727;48.892;9.544;2023-09-07T04:12:38;12.90;99.90
1468;DHT22;727;48.892;9.544;2023-09-07T04:15:08;12.90;99.90
1468;DHT22;727;48.892;9.544;2023-09-07T04:17:36;12.90;99.90
1468;DHT22;727;48.892;9.544;2023-09-07T04:20:07;12.80;99.90
1468;DHT22;727;48.892;9.544;2023-09-07T04:22:34;12.80;99.90
1468;DHT22;727;48.892;9.544;2023-09-07T04:25:02;12.80;99.90
1468;DHT22;727;48.892;9.544;2023-09-07T04:27:30;12.80;99.90
1468;DHT22;727;48.892;9.544;2023-09-07T04:29:56;12.80;99.90
1468;DHT22;727;48.892;9.544;2023-09-07T04:32:24;12.80;99.90
1468;DHT22;727;48.892;9.544;2023-09-07T04:34:53;12.80;99.90
1468;DHT22;727;48.892;9.544;2023-09-07T04:37:21;12.70;99.90
1468;DHT22;727;48.892;9.544;2023-09-07T04:39:50;12.60;99.90
1468;DHT22;727;48.892;9.544;2023-09-07T04:42:18;12.60;99.90
1468;DHT22;727;48.892;9.544;2023-09-07T04:44:46;12.60;99.90
1468;DHT22;727;48.892;9.544;2023-09-07T04:47:13;12.60;99.90
1468;DHT22;727;48.892;9.544;2023-09-07T04:49:41;12.60;99.90
1468;DHT22;727;48.892;9.544;2023-09-07T04:52:08;12.60;99.90
1468;DHT22;727;48.892;9.544;2023-09-07T04:54:35;12.50;99.90
1468;DHT22;727;48.892;9.544;2023-09-07T04:57:02;12.50;99.90
1468;DHT22;727;48.892;9.544;2023-09-07T04:59:29;12.50;99.90
1468;DHT22;727;48.892;9.544;2023-09-07T05:01:59;12.40;99.90
1468;DHT22;727;48.892;9.544;2023-09-07T05:04:26;12.50;99.90
1468;DHT22;727;48.892;9.544;2023-09-07T05:06:55;12.50;99.90
1468;DHT22;727;48.892;9.544;2023-09-07T05:09:22;12.60;99.90
1468;DHT22;727;48.892;9.544;2023-09-07T05:11:50;12.70;99.90
1468;DHT22;727;48.892;9.544;2023-09-07T05:14:17;12.70;99.90
1468;DHT22;727;48.892;9.544;2023-09-07T05:16:44;12.80;99.90
1468;DHT22;727;48.892;9.544;2023-09-07T05:19:11;12.80;99.90
1468;DHT22;727;48.892;9.544;2023-09-07T05:21:38;12.80;99.90
1468;DHT22;727;48.892;9.544;2023-09-07T05:24:06;12.80;99.90
1468;DHT22;727;48.892;9.544;2023-09-07T05:26:33;12.80;99.90
1468;DHT22;727;48.892;9.544;2023-09-07T05:29:00;12.80;99.90
1468;DHT22;727;48.892;9.544;2023-09-07T05:31:27;12.90;99.90
1468;DHT22;727;48.892;9.544;2023-09-07T05:33:54;13.00;99.90
1468;DHT22;727;48.892;9.544;2023-09-07T05:36:20;13.40;99.90
1468;DHT22;727;48.892;9.544;2023-09-07T05:38:47;14.70;99.90
1468;DHT22;727;48.892;9.544;2023-09-07T05:41:16;16.60;99.90
1468;DHT22;727;48.892;9.544;2023-09-07T05:43:45;18.40;99.90
1468;DHT22;727;48.892;9.544;2023-09-07T05:46:11;20.00;99.90
1468;DHT22;727;48.892;9.544;2023-09-07T05:48:38;20.80;98.30
1468;DHT22;727;48.892;9.544;2023-09-07T05:51:05;21.60;95.50
1468;DHT22;727;48.892;9.544;2023-09-07T05:53:32;22.60;93.50
1468;DHT22;727;48.892;9.544;2023-09-07T05:55:59;23.10;91.10
1468;DHT22;727;48.892;9.544;2023-09-07T05:58:27;24.10;89.40
1468;DHT22;727;48.892;9.544;2023-09-07T06:00:55;25.10;84.30
1468;DHT22;727;48.892;9.544;2023-09-07T06:03:22;25.30;81.70
1468;DHT22;727;48.892;9.544;2023-09-07T06:05:49;25.50;80.80
1468;DHT22;727;48.892;9.544;2023-09-07T06:08:16;26.10;77.70
1468;DHT22;727;48.892;9.544;2023-09-07T06:10:42;26.50;76.50
1468;DHT22;727;48.892;9.544;2023-09-07T06:13:09;27.10;74.00
1468;DHT22;727;48.892;9.544;2023-09-07T06:15:37;27.40;72.70
1468;DHT22;727;48.892;9.544;2023-09-07T06:18:04;27.60;71.30
1468;DHT22;727;48.892;9.544;2023-09-07T06:20:33;27.80;70.80
1468;DHT22;727;48.892;9.544;2023-09-07T06:23:00;28.10;69.70
1468;DHT22;727;48.892;9.544;2023-09-07T06:25:27;28.20;69.50
1468;DHT22;727;48.892;9.544;2023-09-07T06:27:54;28.20;69.30
1468;DHT22;727;48.892;9.544;2023-09-07T06:30:21;28.20;69.40
1468;DHT22;727;48.892;9.544;2023-09-07T06:32:49;28.30;69.60
1468;DHT22;727;48.892;9.544;2023-09-07T06:35:17;27.80;70.20
1468;DHT22;727;48.892;9.544;2023-09-07T06:37:44;27.40;71.90
1468;DHT22;727;48.892;9.544;2023-09-07T06:40:11;27.40;72.20
1468;DHT22;727;48.892;9.544;2023-09-07T06:42:39;26.80;72.90
1468;DHT22;727;48.892;9.544;2023-09-07T06:45:07;25.80;76.30
1468;DHT22;727;48.892;9.544;2023-09-07T06:47:34;24.80;79.50
1468;DHT22;727;48.892;9.544;2023-09-07T06:50:06;23.70;83.10
1468;DHT22;727;48.892;9.544;2023-09-07T06:52:33;23.00;86.20
1468;DHT22;727;48.892;9.544;2023-09-07T06:55:00;22.10;88.90
1468;DHT22;727;48.892;9.544;2023-09-07T06:57:27;21.70;90.80
1468;DHT22;727;48.892;9.544;2023-09-07T06:59:54;21.50;91.70
1468;DHT22;727;48.892;9.544;2023-09-07T07:02:22;21.50;92.90
1468;DHT22;727;48.892;9.544;2023-09-07T07:04:49;21.40;93.30
1468;DHT22;727;48.892;9.544;2023-09-07T07:07:21;21.50;93.50
1468;DHT22;727;48.892;9.544;2023-09-07T07:09:48;21.50;93.60
1468;DHT22;727;48.892;9.544;2023-09-07T07:12:16;21.70;94.00
1468;DHT22;727;48.892;9.544;2023-09-07T07:14:44;21.70;93.80
1468;DHT22;727;48.892;9.544;2023-09-07T07:17:11;21.70;94.00
1468;DHT22;727;48.892;9.544;2023-09-07T07:19:37;21.80;94.00
1468;DHT22;727;48.892;9.544;2023-09-07T07:22:04;21.80;94.00
1468;DHT22;727;48.892;9.544;2023-09-07T07:24:33;21.90;93.90
1468;DHT22;727;48.892;9.544;2023-09-07T07:27:00;22.20;93.90
1468;DHT22;727;48.892;9.544;2023-09-07T07:29:29;22.20;93.70
1468;DHT22;727;48.892;9.544;2023-09-07T07:31:55;22.50;93.40
1468;DHT22;727;48.892;9.544;2023-09-07T07:34:23;22.70;93.30
1468;DHT22;727;48.892;9.544;2023-09-07T07:36:53;22.90;92.40
1468;DHT22;727;48.892;9.544;2023-09-07T07:39:20;22.90;92.50
1468;DHT22;727;48.892;9.544;2023-09-07T07:41:48;23.10;92.40
1468;DHT22;727;48.892;9.544;2023-09-07T07:44:15;23.10;92.20
1468;DHT22;727;48.892;9.544;2023-09-07T07:46:41;23.30;92.20
1468;DHT22;727;48.892;9.544;2023-09-07T07:49:08;23.70;92.00
1468;DHT22;727;48.892;9.544;2023-09-07T07:51:36;23.90;91.70
1468;DHT22;727;48.892;9.544;2023-09-07T07:54:03;24.10;91.80
1468;DHT22;727;48.892;9.544;2023-09-07T07:56:30;24.50;91.20
1468;DHT22;727;48.892;9.544;2023-09-07T07:58:59;24.80;90.70
1468;DHT22;727;48.892;9.544;2023-09-07T08:01:25;24.70;90.30
1468;DHT22;727;48.892;9.544;2023-09-07T08:03:52;25.10;90.50
1468;DHT22;727;48.892;9.544;2023-09-07T08:06:19;25.30;90.30
1468;DHT22;727;48.892;9.544;2023-09-07T08:08:46;25.40;88.60
1468;DHT22;727;48.892;9.544;2023-09-07T08:11:13;25.40;88.20
1468;DHT22;727;48.892;9.544;2023-09-07T08:13:41;25.40;88.10
1468;DHT22;727;48.892;9.544;2023-09-07T08:16:13;25.50;88.70
1468;DHT22;727;48.892;9.544;2023-09-07T08:18:39;25.80;88.40
1468;DHT22;727;48.892;9.544;2023-09-07T08:21:08;26.00;86.30
1468;DHT22;727;48.892;9.544;2023-09-07T08:23:35;26.10;85.40
1468;DHT22;727;48.892;9.544;2023-09-07T08:26:01;26.40;85.30
1468;DHT22;727;48.892;9.544;2023-09-07T08:28:30;26.60;86.30
1468;DHT22;727;48.892;9.544;2023-09-07T08:30:58;26.50;84.30
1468;DHT22;727;48.892;9.544;2023-09-07T08:33:27;26.40;84.30
1468;DHT22;727;48.892;9.544;2023-09-07T08:35:56;26.70;82.40
1468;DHT22;727;48.892;9.544;2023-09-07T08:38:27;26.60;81.10
1468;DHT22;727;48.892;9.544;2023-09-07T08:41:01;26.80;81.60
1468;DHT22;727;48.892;9.544;2023-09-07T08:43:33;27.10;82.50
1468;DHT22;727;48.892;9.544;2023-09-07T08:46:05;27.20;78.40
1468;DHT22;727;48.892;9.544;2023-09-07T08:48:37;27.20;78.90
1468;DHT22;727;48.892;9.544;2023-09-07T08:51:05;27.30;81.50
1468;DHT22;727;48.892;9.544;2023-09-07T08:53:32;27.30;80.60
1468;DHT22;727;48.892;9.544;2023-09-07T08:56:01;27.50;78.80
1468;DHT22;727;48.892;9.544;2023-09-07T08:58:28;27.50;80.40
1468;DHT22;727;48.892;9.544;2023-09-07T09:00:57;27.50;80.90
1468;DHT22;727;48.892;9.544;2023-09-07T09:03:24;27.50;80.90
1468;DHT22;727;48.892;9.544;2023-09-07T09:05:53;27.70;81.10
1468;DHT22;727;48.892;9.544;2023-09-07T09:08:21;27.70;81.70
1468;DHT22;727;48.892;9.544;2023-09-07T09:10:58;27.90;80.20
1468;DHT22;727;48.892;9.544;2023-09-07T09:13:27;28.20;78.90
1468;DHT22;727;48.892;9.544;2023-09-07T09:15:54;28.30;78.10
1468;DHT22;727;48.892;9.544;2023-09-07T09:18:21;28.20;78.60
1468;DHT22;727;48.892;9.544;2023-09-07T09:20:48;28.40;76.80
1468;DHT22;727;48.892;9.544;2023-09-07T09:23:17;28.10;77.60
1468;DHT22;727;48.892;9.544;2023-09-07T09:25:44;28.00;78.20
1468;DHT22;727;48.892;9.544;2023-09-07T09:28:11;27.90;77.50
1468;DHT22;727;48.892;9.544;2023-09-07T09:30:38;28.00;76.80
1468;DHT22;727;48.892;9.544;2023-09-07T09:33:05;28.20;76.30
1468;DHT22;727;48.892;9.544;2023-09-07T09:35:34;28.50;75.50
1468;DHT22;727;48.892;9.544;2023-09-07T09:38:02;28.50;76.30
1468;DHT22;727;48.892;9.544;2023-09-07T09:40:31;28.80;75.20
1468;DHT22;727;48.892;9.544;2023-09-07T09:43:03;29.00;74.30
1468;DHT22;727;48.892;9.544;2023-09-07T09:45:30;29.10;73.80
1468;DHT22;727;48.892;9.544;2023-09-07T09:47:58;29.00;73.90
1468;DHT22;727;48.892;9.544;2023-09-07T09:50:26;29.10;74.60
1468;DHT22;727;48.892;9.544;2023-09-07T09:52:53;29.20;74.00
1468;DHT22;727;48.892;9.544;2023-09-07T09:55:22;29.30;73.80
1468;DHT22;727;48.892;9.544;2023-09-07T09:57:50;29.40;71.40
1468;DHT22;727;48.892;9.544;2023-09-07T10:00:17;29.70;70.80
1468;DHT22;727;48.892;9.544;2023-09-07T10:02:56;29.80;69.40
1468;DHT22;727;48.892;9.544;2023-09-07T10:05:25;29.40;69.10
1468;DHT22;727;48.892;9.544;2023-09-07T10:07:52;29.20;70.10
1468;DHT22;727;48.892;9.544;2023-09-07T10:10:20;29.30;70.80
1468;DHT22;727;48.892;9.544;2023-09-07T10:12:53;29.30;69.40
1468;DHT22;727;48.892;9.544;2023-09-07T10:15:24;29.40;68.40
1468;DHT22;727;48.892;9.544;2023-09-07T10:18:03;29.50;69.10
1468;DHT22;727;48.892;9.544;2023-09-07T10:20:35;29.60;67.50
1468;DHT22;727;48.892;9.544;2023-09-07T10:23:13;29.60;68.60
1468;DHT22;727;48.892;9.544;2023-09-07T10:25:40;29.60;68.50
1468;DHT22;727;48.892;9.544;2023-09-07T10:28:21;29.60;67.90
1468;DHT22;727;48.892;9.544;2023-09-07T10:31:13;29.70;67.60
1468;DHT22;727;48.892;9.544;2023-09-07T10:33:41;29.90;67.70
1468;DHT22;727;48.892;9.544;2023-09-07T10:36:20;29.90;66.80
1468;DHT22;727;48.892;9.544;2023-09-07T10:38:47;29.90;66.30
1468;DHT22;727;48.892;9.544;2023-09-07T10:41:14;30.20;65.80
1468;DHT22;727;48.892;9.544;2023-09-07T10:43:49;30.50;65.40
1468;DHT22;727;48.892;9.544;2023-09-07T10:46:18;30.60;64.90
1468;DHT22;727;48.892;9.544;2023-09-07T10:48:48;30.50;65.40
1468;DHT22;727;48.892;9.544;2023-09-07T10:51:15;30.50;64.60
1468;DHT22;727;48.892;9.544;2023-09-07T10:53:42;30.60;65.80
1468;DHT22;727;48.892;9.544;2023-09-07T10:56:09;30.70;64.10
1468;DHT22;727;48.892;9.544;2023-09-07T10:58:37;30.60;65.00
1468;DHT22;727;48.892;9.544;2023-09-07T11:01:09;30.50;67.50
1468;DHT22;727;48.892;9.544;2023-09-07T11:03:37;30.70;65.10
1468;DHT22;727;48.892;9.544;2023-09-07T11:06:06;30.90;66.20
1468;DHT22;727;48.892;9.544;2023-09-07T11:08:34;31.40;63.20
1468;DHT22;727;48.892;9.544;2023-09-07T11:11:02;31.40;63.40
1468;DHT22;727;48.892;9.544;2023-09-07T11:13:29;31.40;62.60
1468;DHT22;727;48.892;9.544;2023-09-07T11:15:58;31.10;61.80
1468;DHT22;727;48.892;9.544;2023-09-07T11:18:26;30.90;63.80
1468;DHT22;727;48.892;9.544;2023-09-07T11:20:53;30.90;63.50
1468;DHT22;727;48.892;9.544;2023-09-07T11:23:21;30.90;63.20
1468;DHT22;727;48.892;9.544;2023-09-07T11:25:49;30.90;64.90
1468;DHT22;727;48.892;9.544;2023-09-07T11:28:18;31.10;64.30
1468;DHT22;727;48.892;9.544;2023-09-07T11:30:51;31.10;64.30
1468;DHT22;727;48.892;9.544;2023-09-07T11:33:19;31.10;64.20
1468;DHT22;727;48.892;9.544;2023-09-07T11:35:47;31.10;64.70
1468;DHT22;727;48.892;9.544;2023-09-07T11:38:16;31.10;65.80
1468;DHT22;727;48.892;9.544;2023-09-07T11:40:43;31.20;64.50
1468;DHT22;727;48.892;9.544;2023-09-07T11:43:10;31.50;64.40
1468;DHT22;727;48.892;9.544;2023-09-07T11:45:38;31.60;64.90
1468;DHT22;727;48.892;9.544;2023-09-07T11:48:06;31.60;63.30
1468;DHT22;727;48.892;9.544;2023-09-07T11:50:34;31.60;63.30
1468;DHT22;727;48.892;9.544;2023-09-07T11:53:04;31.40;64.30
1468;DHT22;727;48.892;9.544;2023-09-07T11:55:31;31.50;63.10
1468;DHT22;727;48.892;9.544;2023-09-07T11:57:58;31.50;63.70
1468;DHT22;727;48.892;9.544;2023-09-07T12:00:25;31.70;65.00
1468;DHT22;727;48.892;9.544;2023-09-07T12:02:51;32.00;63.80
1468;DHT22;727;48.892;9.544;2023-09-07T12:05:18;32.40;63.40
1468;DHT22;727;48.892;9.544;2023-09-07T12:07:45;32.70;60.80
1468;DHT22;727;48.892;9.544;2023-09-07T12:10:13;32.80;59.80
1468;DHT22;727;48.892;9.544;2023-09-07T12:12:40;32.60;59.90
1468;DHT22;727;48.892;9.544;2023-09-07T12:15:08;32.60;59.30
1468;DHT22;727;48.892;9.544;2023-09-07T12:17:36;32.80;60.50
1468;DHT22;727;48.892;9.544;2023-09-07T12:20:07;33.10;59.10
1468;DHT22;727;48.892;9.544;2023-09-07T12:22:36;33.60;58.70
1468;DHT22;727;48.892;9.544;2023-09-07T12:25:05;34.10;57.60
1468;DHT22;727;48.892;9.544;2023-09-07T12:27:34;34.70;56.80
1468;DHT22;727;48.892;9.544;2023-09-07T12:30:01;35.10;55.20
1468;DHT22;727;48.892;9.544;2023-09-07T12:32:31;35.40;53.90
1468;DHT22;727;48.892;9.544;2023-09-07T12:34:57;35.40;54.50
1468;DHT22;727;48.892;9.544;2023-09-07T12:37:24;35.80;53.30
1468;DHT22;727;48.892;9.544;2023-09-07T12:39:52;35.70;52.40
1468;DHT22;727;48.892;9.544;2023-09-07T12:42:19;36.00;51.80
1468;DHT22;727;48.892;9.544;2023-09-07T12:44:47;35.60;52.30
1468;DHT22;727;48.892;9.544;2023-09-07T12:47:14;35.10;53.20
1468;DHT22;727;48.892;9.544;2023-09-07T12:49:41;35.30;52.50
1468;DHT22;727;48.892;9.544;2023-09-07T12:52:08;35.90;52.20
1468;DHT22;727;48.892;9.544;2023-09-07T12:54:36;35.80;51.00
1468;DHT22;727;48.892;9.544;2023-09-07T12:57:03;36.00;50.80
1468;DHT22;727;48.892;9.544;2023-09-07T12:59:30;35.80;51.80
1468;DHT22;727;48.892;9.544;2023-09-07T13:01:59;35.60;51.80
1468;DHT22;727;48.892;9.544;2023-09-07T13:04:25;35.60;52.20
1468;DHT22;727;48.892;9.544;2023-09-07T13:06:52;35.90;51.00
1468;DHT22;727;48.892;9.544;2023-09-07T13:09:19;35.70;51.20
1468;DHT22;727;48.892;9.544;2023-09-07T13:11:46;35.50;50.80
1468;DHT22;727;48.892;9.544;2023-09-07T13:14:13;35.20;51.80
1468;DHT22;727;48.892;9.544;2023-09-07T13:16:40;35.10;51.80
1468;DHT22;727;48.892;9.544;2023-09-07T13:19:08;35.10;51.90
1468;DHT22;727;48.892;9.544;2023-09-07T13:21:35;34.80;53.00
1468;DHT22;727;48.892;9.544;2023-09-07T13:24:02;34.10;53.30
1468;DHT22;727;48.892;9.544;2023-09-07T13:26:30;33.60;53.70
1468;DHT22;727;48.892;9.544;2023-09-07T13:28:56;33.10;55.50
1468;DHT22;727;48.892;9.544;2023-09-07T13:31:26;32.50;55.50
1468;DHT22;727;48.892;9.544;2023-09-07T13:33:53;32.00;57.10
1468;DHT22;727;48.892;9.544;2023-09-07T13:36:21;31.70;58.20
1468;DHT22;727;48.892;9.544;2023-09-07T13:38:48;31.80;57.80
1468;DHT22;727;48.892;9.544;2023-09-07T13:41:15;31.70;58.20
1468;DHT22;727;48.892;9.544;2023-09-07T13:43:42;31.70;58.10
1468;DHT22;727;48.892;9.544;2023-09-07T13:46:09;31.70;58.20
1468;DHT22;727;48.892;9.544;2023-09-07T13:48:36;31.60;57.30
1468;DHT22;727;48.892;9.544;2023-09-07T13:51:03;31.50;56.60
1468;DHT22;727;48.892;9.544;2023-09-07T13:53:33;31.20;57.20
1468;DHT22;727;48.892;9.544;2023-09-07T13:55:59;31.20;56.60
1468;DHT22;727;48.892;9.544;2023-09-07T13:58:26;31.20;56.40
1468;DHT22;727;48.892;9.544;2023-09-07T14:00:53;31.20;56.50
1468;DHT22;727;48.892;9.544;2023-09-07T14:03:20;31.30;55.10
1468;DHT22;727;48.892;9.544;2023-09-07T14:05:47;31.10;54.70
1468;DHT22;727;48.892;9.544;2023-09-07T14:08:14;30.90;54.60
1468;DHT22;727;48.892;9.544;2023-09-07T14:10:50;30.80;55.20
1468;DHT22;727;48.892;9.544;2023-09-07T14:13:18;30.70;55.40
1468;DHT22;727;48.892;9.544;2023-09-07T14:15:45;30.80;55.20
1468;DHT22;727;48.892;9.544;2023-09-07T14:18:12;30.80;56.30
1468;DHT22;727;48.892;9.544;2023-09-07T14:20:39;30.90;55.70
1468;DHT22;727;48.892;9.544;2023-09-07T14:23:06;30.90;55.00
1468;DHT22;727;48.892;9.544;2023-09-07T14:25:33;30.90;55.90
1468;DHT22;727;48.892;9.544;2023-09-07T14:28:01;30.80;55.30
1468;DHT22;727;48.892;9.544;2023-09-07T14:30:28;30.70;55.70
1468;DHT22;727;48.892;9.544;2023-09-07T14:32:55;30.70;55.30
1468;DHT22;727;48.892;9.544;2023-09-07T14:35:21;30.70;56.70
1468;DHT22;727;48.892;9.544;2023-09-07T14:37:50;30.70;56.10
1468;DHT22;727;48.892;9.544;2023-09-07T14:40:18;30.60;54.30
1468;DHT22;727;48.892;9.544;2023-09-07T14:42:47;30.40;55.50
1468;DHT22;727;48.892;9.544;2023-09-07T14:45:21;30.50;55.80
1468;DHT22;727;48.892;9.544;2023-09-07T14:47:48;30.50;54.90
1468;DHT22;727;48.892;9.544;2023-09-07T14:50:15;30.50;56.30
1468;DHT22;727;48.892;9.544;2023-09-07T14:52:41;30.40;56.20
1468;DHT22;727;48.892;9.544;2023-09-07T14:55:13;30.30;55.90
1468;DHT22;727;48.892;9.544;2023-09-07T14:57:40;30.30;56.60
1468;DHT22;727;48.892;9.544;2023-09-07T15:00:09;30.30;54.40
1468;DHT22;727;48.892;9.544;2023-09-07T15:02:38;30.30;53.90
1468;DHT22;727;48.892;9.544;2023-09-07T15:05:06;30.20;55.70
1468;DHT22;727;48.892;9.544;2023-09-07T15:07:32;30.30;55.70
1468;DHT22;727;48.892;9.544;2023-09-07T15:09:59;30.10;56.20
1468;DHT22;727;48.892;9.544;2023-09-07T15:12:26;29.90;56.70
1468;DHT22;727;48.892;9.544;2023-09-07T15:14:53;30.00;56.30
1468;DHT22;727;48.892;9.544;2023-09-07T15:17:20;30.10;56.70
1468;DHT22;727;48.892;9.544;2023-09-07T15:19:48;30.00;56.30
1468;DHT22;727;48.892;9.544;2023-09-07T15:22:15;29.70;55.20
1468;DHT22;727;48.892;9.544;2023-09-07T15:24:42;29.60;55.40
1468;DHT22;727;48.892;9.544;2023-09-07T15:27:09;29.50;54.70
1468;DHT22;727;48.892;9.544;2023-09-07T15:29:36;29.30;56.70
1468;DHT22;727;48.892;9.544;2023-09-07T15:32:03;29.20;54.90
1468;DHT22;727;48.892;9.544;2023-09-07T15:34:31;29.20;54.90
1468;DHT22;727;48.892;9.544;2023-09-07T15:37:00;29.20;54.70
1468;DHT22;727;48.892;9.544;2023-09-07T15:39:27;29.00;55.90
1468;DHT22;727;48.892;9.544;2023-09-07T15:41:54;29.10;55.20
1468;DHT22;727;48.892;9.544;2023-09-07T15:44:21;29.00;57.50
1468;DHT22;727;48.892;9.544;2023-09-07T15:46:49;29.00;56.80
1468;DHT22;727;48.892;9.544;2023-09-07T15:49:16;29.00;57.50
1468;DHT22;727;48.892;9.544;2023-09-07T15:51:45;29.00;56.80
1468;DHT22;727;48.892;9.544;2023-09-07T15:54:16;29.00;57.20
1468;DHT22;727;48.892;9.544;2023-09-07T16:01:49;28.60;58.70
1468;DHT22;727;48.892;9.544;2023-09-07T16:04:16;28.50;58.50
1468;DHT22;727;48.892;9.544;2023-09-07T16:06:44;28.30;59.40
1468;DHT22;727;48.892;9.544;2023-09-07T16:09:11;28.20;59.30
1468;DHT22;727;48.892;9.544;2023-09-07T16:11:43;28.00;60.20
1468;DHT22;727;48.892;9.544;2023-09-07T16:14:10;27.70;60.50
1468;DHT22;727;48.892;9.544;2023-09-07T16:16:38;27.50;62.00
1468;DHT22;727;48.892;9.544;2023-09-07T16:19:05;27.30;63.80
1468;DHT22;727;48.892;9.544;2023-09-07T16:21:32;27.20;63.40
1468;DHT22;727;48.892;9.544;2023-09-07T16:23:58;27.10;63.90
1468;DHT22;727;48.892;9.544;2023-09-07T16:26:27;26.80;65.20